Accueil
METAR-TAF:

METAR-TAF

Aéroports :

Aéroport de Sendai

Sendai, Japon

latitude: 38-08N, longitude: 140-55E, altitude: 1 m

Observation

Le bulletin a été fait il y a 26 minutes, à 12:00 UTC
Vent 4 kt de nord/nord-ouest, variant entre nord-ouest et nord
Température 8°C
Humidité 87%
Pression 1018 hPa
Visibilité 10 km ou plus
Quelques nuages à une hauteur de 4000 ft

METAR: RJSS 031200Z 34004KT 310V010 9999 FEW040 08/06 Q1018

Heure: 21:26 (12:26 UTC)

Prévision

Le bulletin a été fait il y a 1 heure et 21 minutes, à 11:05 UTC
Prévision valable du 03 à 12 UTC au 04 à 18 UTC
Vent 5 kt de sud/sud-ouest
Visibilité 10 km ou plus
Quelques nuages à une hauteur de 3000 ft
Evoluant progressivement
du 04 à 00 UTC au 04 à 03 UTC
Vent 10 kt de sud-est
Evoluant progressivement
du 04 à 09 UTC au 04 à 12 UTC
Vent 4 kt de nord/nord-ouest

TAF: RJSS 031105Z 0312/0418 21005KT 9999 FEW030 BECMG 0400/0403 14010KT BECMG 0409/0412 34004KT

Observations et prévisions météorologiques de plus de 4000 aéroports (messages METAR et TAF).

Les stations disponibles sont représentées par des disques jaunes et rouges sur la carte.

Passer la souris dessus pour voir le nom de la station.

Cliquer dessus pour voir les observations et prévisions météorologiques.

Pour changer de carte: cliquez sur les boutons verts avec une croix noire pour zoomer, sur le bouton vert avec un tiret pour effectuer un zoom arrière, ou sur les flèches vertes pour les cartes adjacentes.


METAR-TAF: